createdAt,value
2023-03-01T00:01:12.143Z,3.30
2023-03-01T00:04:16.920Z,3.40
2023-03-01T00:07:21.634Z,3.40
2023-03-01T00:10:27.482Z,3.50
2023-03-01T00:13:32.729Z,3.30
2023-03-01T00:16:42.384Z,3.20
2023-03-01T00:19:47.233Z,3.20
2023-03-01T00:22:51.527Z,3.10
2023-03-01T00:25:56.074Z,3.00
2023-03-01T00:29:00.765Z,3.20
2023-03-01T00:32:05.316Z,3.10
2023-03-01T00:35:10.036Z,3.00
2023-03-01T00:38:14.403Z,2.80
2023-03-01T00:41:20.087Z,2.80
2023-03-01T00:44:24.304Z,2.80
2023-03-01T00:47:30.305Z,2.70
2023-03-01T00:50:34.913Z,2.60
2023-03-01T00:53:41.254Z,2.60
2023-03-01T00:56:45.406Z,2.50
2023-03-01T00:59:49.888Z,2.40
2023-03-01T01:02:54.567Z,2.50
2023-03-01T01:05:59.419Z,2.40
2023-03-01T01:09:05.761Z,2.40
2023-03-01T01:12:10.301Z,2.40
2023-03-01T01:15:17.436Z,2.20
2023-03-01T01:18:21.765Z,2.20
2023-03-01T01:21:27.011Z,2.80
2023-03-01T01:24:31.377Z,2.80
2023-03-01T01:27:35.790Z,2.40
2023-03-01T01:30:40.058Z,2.20
2023-03-01T01:33:45.324Z,2.40
2023-03-01T01:36:51.535Z,2.40
2023-03-01T01:39:56.180Z,2.20
2023-03-01T01:43:00.366Z,2.00
2023-03-01T01:46:14.229Z,1.70
2023-03-01T01:49:49.718Z,2.00
2023-03-01T01:52:55.776Z,2.20
2023-03-01T01:56:02.352Z,2.70
2023-03-01T01:59:07.256Z,2.60
2023-03-01T02:02:12.691Z,2.20
2023-03-01T02:05:39.218Z,2.00
2023-03-01T02:08:45.041Z,1.70
2023-03-01T02:11:50.173Z,1.60
2023-03-01T02:14:54.708Z,1.40
2023-03-01T02:17:59.405Z,1.50
2023-03-01T02:21:14.250Z,1.40
2023-03-01T02:24:33.706Z,1.40
2023-03-01T02:28:10.168Z,1.30
2023-03-01T02:31:38.483Z,1.50
2023-03-01T02:34:44.054Z,1.50
2023-03-01T02:37:49.320Z,1.20
2023-03-01T02:40:57.904Z,1.30
2023-03-01T02:44:03.936Z,1.30
2023-03-01T02:47:08.307Z,1.30
2023-03-01T02:50:40.474Z,1.10
2023-03-01T02:53:57.974Z,1.00
2023-03-01T02:57:02.560Z,1.10
2023-03-01T03:00:20.152Z,1.00
2023-03-01T03:03:25.001Z,0.80
2023-03-01T03:06:30.467Z,0.70
2023-03-01T03:09:35.326Z,0.80
2023-03-01T03:12:40.403Z,0.90
2023-03-01T03:15:45.348Z,0.80
2023-03-01T03:18:50.183Z,0.70
2023-03-01T03:21:54.414Z,0.70
2023-03-01T03:24:58.865Z,0.70
2023-03-01T03:28:10.394Z,0.80
2023-03-01T03:31:14.968Z,0.80
2023-03-01T03:34:19.348Z,0.60
2023-03-01T03:37:42.359Z,0.70
2023-03-01T03:40:52.711Z,0.70
2023-03-01T03:43:57.195Z,0.80
2023-03-01T03:47:01.633Z,0.90
2023-03-01T03:50:06.224Z,0.80
2023-03-01T03:53:13.237Z,0.50
2023-03-01T03:56:17.552Z,0.50
2023-03-01T03:59:22.184Z,0.50
2023-03-01T04:02:26.372Z,0.40
2023-03-01T04:05:31.380Z,0.40
2023-03-01T04:08:35.843Z,0.30
2023-03-01T04:11:40.199Z,0.30
2023-03-01T04:14:44.540Z,0.40
2023-03-01T04:17:49.024Z,0.40
2023-03-01T04:20:56.210Z,0.20
2023-03-01T04:24:00.778Z,0.20
2023-03-01T04:27:05.158Z,0.20
2023-03-01T04:30:10.969Z,0.40
2023-03-01T04:33:15.622Z,0.10
2023-03-01T04:36:22.264Z,0.20
2023-03-01T04:39:26.974Z,0.20
2023-03-01T04:42:31.540Z,0.10
2023-03-01T04:45:35.973Z,0.00
2023-03-01T04:48:41.561Z,0.10
2023-03-01T04:51:45.657Z,0.00
2023-03-01T04:54:49.910Z,-0.10
2023-03-01T04:57:54.868Z,0.10
2023-03-01T05:00:59.539Z,-0.10
2023-03-01T05:04:06.248Z,-0.10
2023-03-01T05:07:10.310Z,-0.10
2023-03-01T05:10:14.748Z,0.00
2023-03-01T05:13:24.088Z,0.00
2023-03-01T05:16:28.902Z,-0.10
2023-03-01T05:19:33.824Z,0.10
2023-03-01T05:22:38.766Z,0.00
2023-03-01T05:25:43.513Z,0.00
2023-03-01T05:28:47.755Z,0.10
2023-03-01T05:31:57.316Z,0.20
2023-03-01T05:35:01.486Z,0.20
2023-03-01T05:38:05.967Z,0.30
2023-03-01T05:41:16.252Z,0.20
2023-03-01T05:44:21.201Z,0.40
2023-03-01T05:47:25.688Z,0.40
2023-03-01T05:50:33.017Z,0.40
2023-03-01T05:53:37.308Z,0.50
2023-03-01T05:56:41.828Z,0.40
2023-03-01T05:59:46.812Z,0.40
2023-03-01T06:02:52.810Z,0.40
2023-03-01T06:05:58.567Z,0.60
2023-03-01T06:09:02.972Z,0.50
2023-03-01T06:12:07.583Z,0.60
2023-03-01T06:15:14.965Z,0.70
2023-03-01T06:18:19.599Z,0.80
2023-03-01T06:21:24.076Z,0.70
2023-03-01T06:24:29.723Z,0.90
2023-03-01T06:27:34.747Z,1.00
2023-03-01T06:30:39.111Z,1.10
2023-03-01T06:33:45.614Z,1.00
2023-03-01T06:36:50.176Z,1.00
2023-03-01T06:39:54.488Z,1.20
2023-03-01T06:42:59.107Z,1.20
2023-03-01T06:46:08.090Z,1.20
2023-03-01T06:49:12.224Z,1.30
2023-03-01T06:52:16.754Z,1.40
2023-03-01T06:55:21.456Z,1.40
2023-03-01T06:58:26.004Z,1.40
2023-03-01T07:01:31.264Z,1.70
2023-03-01T07:04:35.643Z,1.80
2023-03-01T07:07:40.774Z,1.80
2023-03-01T07:10:45.891Z,2.00
2023-03-01T07:13:50.748Z,2.10
2023-03-01T07:16:55.566Z,2.00
2023-03-01T07:19:59.823Z,2.30
2023-03-01T07:23:04.111Z,2.20
2023-03-01T07:26:08.712Z,2.50
2023-03-01T07:29:13.470Z,2.40
2023-03-01T07:32:18.231Z,2.50
2023-03-01T07:35:23.821Z,2.60
2023-03-01T07:38:28.256Z,2.70
2023-03-01T07:41:32.953Z,2.70
2023-03-01T07:44:37.652Z,2.80
2023-03-01T07:47:42.363Z,3.00
2023-03-01T07:50:46.869Z,3.10
2023-03-01T07:53:51.363Z,3.20
2023-03-01T07:56:57.027Z,3.10
2023-03-01T08:00:01.568Z,3.20
2023-03-01T08:06:19.957Z,3.20
2023-03-01T08:09:25.739Z,3.40
2023-03-01T08:12:29.751Z,3.90
2023-03-01T08:15:34.150Z,3.90
2023-03-01T08:18:38.845Z,3.90
2023-03-01T08:21:43.616Z,4.10
2023-03-01T08:24:47.984Z,4.30
2023-03-01T08:27:52.296Z,4.30
2023-03-01T08:30:56.722Z,4.50
2023-03-01T08:34:03.903Z,4.60
2023-03-01T08:37:08.084Z,4.50
2023-03-01T08:40:14.460Z,4.60
2023-03-01T08:43:18.633Z,4.70
2023-03-01T08:46:22.938Z,5.40
2023-03-01T08:49:27.595Z,5.40
2023-03-01T08:52:33.983Z,5.20
2023-03-01T08:55:38.400Z,6.50
2023-03-01T08:58:46.300Z,6.40
2023-03-01T09:01:51.009Z,6.90
2023-03-01T09:04:55.684Z,6.90
2023-03-01T09:08:00.386Z,7.40
2023-03-01T09:11:06.328Z,7.90
2023-03-01T09:14:12.074Z,8.50
2023-03-01T09:17:16.893Z,8.30
2023-03-01T09:20:21.522Z,8.70
2023-03-01T09:23:25.930Z,9.40
2023-03-01T09:26:30.330Z,9.40
2023-03-01T09:29:36.211Z,9.00
2023-03-01T09:32:43.712Z,9.90
2023-03-01T09:35:48.966Z,9.60
2023-03-01T09:38:54.225Z,9.90
2023-03-01T09:42:05.189Z,9.90
2023-03-01T09:45:25.157Z,9.10
2023-03-01T09:48:38.254Z,8.10
2023-03-01T09:51:44.066Z,7.90
2023-03-01T09:54:53.242Z,7.80
2023-03-01T09:58:20.779Z,8.10
2023-03-01T10:01:24.773Z,7.90
2023-03-01T10:04:50.143Z,7.60
2023-03-01T10:07:57.785Z,7.30
2023-03-01T10:11:02.216Z,7.10
2023-03-01T10:14:30.045Z,6.50
2023-03-01T10:18:08.589Z,6.40
2023-03-01T10:21:19.903Z,6.60
2023-03-01T10:24:24.653Z,6.80
2023-03-01T10:27:54.712Z,6.20
2023-03-01T10:31:00.296Z,6.40
2023-03-01T10:34:21.574Z,6.20
2023-03-01T10:37:28.180Z,6.80
2023-03-01T10:40:34.059Z,7.10
2023-03-01T10:43:50.790Z,7.40
2023-03-01T10:47:01.207Z,7.50
2023-03-01T10:50:18.384Z,8.90
2023-03-01T10:53:27.582Z,8.90
2023-03-01T10:56:49.973Z,8.00
2023-03-01T11:00:23.352Z,6.10
2023-03-01T11:03:33.443Z,5.40
2023-03-01T11:06:39.618Z,6.30
2023-03-01T11:09:44.065Z,6.60
2023-03-01T11:12:48.622Z,6.70
2023-03-01T11:16:11.143Z,6.60
2023-03-01T11:19:21.811Z,6.80
2023-03-01T11:22:26.095Z,7.10
2023-03-01T11:25:35.344Z,7.90
2023-03-01T11:28:43.059Z,8.20
2023-03-01T11:31:57.659Z,7.00
2023-03-01T11:35:21.812Z,7.80
2023-03-01T11:38:28.265Z,7.70
2023-03-01T11:41:37.543Z,7.20
2023-03-01T11:44:44.211Z,8.20
2023-03-01T11:48:15.874Z,7.70
2023-03-01T11:51:44.521Z,9.00
2023-03-01T11:55:13.071Z,8.60
2023-03-01T11:58:44.900Z,8.60
2023-03-01T12:02:24.001Z,9.10
2023-03-01T12:05:50.524Z,10.10
2023-03-01T12:09:17.118Z,10.30
2023-03-01T12:12:30.278Z,10.00
2023-03-01T12:15:49.642Z,10.00
2023-03-01T12:19:06.167Z,9.70
2023-03-01T12:22:30.132Z,10.10
2023-03-01T12:25:48.680Z,10.60
2023-03-01T12:29:07.640Z,12.10
2023-03-01T12:32:53.518Z,12.40
2023-03-01T12:36:28.687Z,12.10
2023-03-01T12:40:00.664Z,12.10
2023-03-01T12:43:38.320Z,11.80
2023-03-01T12:46:57.838Z,13.10
2023-03-01T12:50:28.544Z,14.40
2023-03-01T12:53:37.692Z,14.70
2023-03-01T12:56:42.461Z,14.10
2023-03-01T13:00:25.403Z,13.40
2023-03-01T13:03:32.741Z,13.60
2023-03-01T13:07:15.361Z,15.90
2023-03-01T13:10:40.319Z,14.10
2023-03-01T13:13:44.842Z,13.40
2023-03-01T13:16:52.426Z,12.80
2023-03-01T13:20:01.272Z,12.50
2023-03-01T13:23:20.511Z,13.00
2023-03-01T13:26:24.708Z,12.80
2023-03-01T13:29:29.079Z,11.70
2023-03-01T13:32:43.446Z,11.90
2023-03-01T13:35:49.138Z,12.60
2023-03-01T13:38:58.885Z,12.70
2023-03-01T13:42:03.694Z,13.30
2023-03-01T13:45:42.208Z,14.20
2023-03-01T13:48:58.010Z,16.70
2023-03-01T13:52:03.487Z,17.90
2023-03-01T13:55:38.950Z,17.10
2023-03-01T13:59:03.515Z,17.00
2023-03-01T14:02:13.382Z,15.80
2023-03-01T14:05:17.783Z,15.90
2023-03-01T14:08:25.900Z,16.10
2023-03-01T14:11:50.685Z,17.30
2023-03-01T14:15:04.686Z,18.00
2023-03-01T14:18:13.317Z,17.70
2023-03-01T14:21:17.945Z,17.40
2023-03-01T14:24:24.220Z,18.00
2023-03-01T14:27:43.050Z,17.80
2023-03-01T14:30:53.325Z,17.80
2023-03-01T14:33:58.302Z,16.60
2023-03-01T14:37:26.762Z,17.60
2023-03-01T14:40:37.684Z,16.10
2023-03-01T14:43:51.255Z,16.50
2023-03-01T14:46:56.996Z,15.70
2023-03-01T14:50:07.228Z,17.20
2023-03-01T14:53:31.598Z,16.60
2023-03-01T14:56:46.145Z,17.30
2023-03-01T14:59:53.862Z,17.60
2023-03-01T15:03:14.221Z,17.50
2023-03-01T15:06:22.607Z,18.30
2023-03-01T15:09:27.261Z,18.80
2023-03-01T15:12:34.708Z,17.80
2023-03-01T15:15:47.530Z,15.40
2023-03-01T15:19:01.103Z,14.00
2023-03-01T15:22:13.076Z,14.00
2023-03-01T15:25:19.677Z,15.30
2023-03-01T15:28:32.475Z,15.00
2023-03-01T15:31:39.655Z,16.10
2023-03-01T15:34:43.824Z,15.90
2023-03-01T15:37:49.773Z,17.20
2023-03-01T15:40:54.420Z,17.90
2023-03-01T15:44:27.947Z,18.70
2023-03-01T15:47:34.744Z,18.70
2023-03-01T15:50:41.015Z,17.60
2023-03-01T15:53:54.555Z,17.20
2023-03-01T15:56:59.677Z,16.80
2023-03-01T16:00:12.204Z,15.90
2023-03-01T16:03:22.390Z,16.40
2023-03-01T16:06:27.024Z,16.60
2023-03-01T16:09:31.629Z,16.50
2023-03-01T16:12:35.847Z,16.80
2023-03-01T16:15:41.246Z,16.70
2023-03-01T16:18:47.710Z,16.10
2023-03-01T16:21:51.932Z,12.60
2023-03-01T16:24:56.246Z,10.60
2023-03-01T16:28:05.738Z,9.90
2023-03-01T16:31:10.583Z,9.30
2023-03-01T16:34:15.693Z,8.80
2023-03-01T16:37:20.377Z,8.00
2023-03-01T16:40:29.930Z,7.70
2023-03-01T16:43:34.516Z,7.50
2023-03-01T16:46:38.955Z,7.20
2023-03-01T16:49:43.470Z,7.20
2023-03-01T16:52:48.097Z,7.00
2023-03-01T16:55:59.780Z,6.90
2023-03-01T16:59:05.789Z,6.80
2023-03-01T17:02:15.877Z,6.50
2023-03-01T17:05:21.912Z,6.40
2023-03-01T17:08:26.693Z,6.30
2023-03-01T17:11:31.374Z,6.10
2023-03-01T17:14:35.995Z,6.10
2023-03-01T17:17:41.744Z,6.00
2023-03-01T17:20:46.104Z,5.90
2023-03-01T17:23:52.071Z,5.70
2023-03-01T17:26:56.770Z,5.50
2023-03-01T17:30:01.385Z,5.30
2023-03-01T17:33:05.960Z,5.10
2023-03-01T17:36:11.061Z,4.80
2023-03-01T17:39:15.316Z,4.70
2023-03-01T17:42:19.775Z,4.60
2023-03-01T17:45:24.408Z,4.50
2023-03-01T17:48:29.209Z,4.40
2023-03-01T17:51:34.051Z,4.20
2023-03-01T17:54:38.552Z,4.20
2023-03-01T17:57:42.989Z,4.10
2023-03-01T18:00:47.265Z,4.00
2023-03-01T18:03:53.356Z,3.90
2023-03-01T18:06:58.427Z,3.80
2023-03-01T18:10:03.711Z,3.60
2023-03-01T18:13:07.891Z,3.60
2023-03-01T18:16:14.425Z,3.50
2023-03-01T18:19:18.631Z,3.40
2023-03-01T18:22:23.150Z,3.40
2023-03-01T18:25:27.481Z,3.30
2023-03-01T18:28:33.012Z,3.30
2023-03-01T18:31:37.652Z,3.20
2023-03-01T18:34:41.806Z,3.20
2023-03-01T18:37:46.239Z,3.10
2023-03-01T18:40:52.432Z,3.10
2023-03-01T18:43:57.457Z,2.90
2023-03-01T18:47:01.493Z,2.80
2023-03-01T18:50:06.293Z,2.90
2023-03-01T18:53:10.716Z,2.80
2023-03-01T18:56:15.597Z,2.70
2023-03-01T18:59:20.187Z,2.70
2023-03-01T19:02:24.255Z,2.60
2023-03-01T19:05:29.645Z,2.60
2023-03-01T19:08:34.402Z,2.60
2023-03-01T19:11:38.956Z,2.60
2023-03-01T19:14:43.545Z,2.50
2023-03-01T19:17:47.900Z,2.40
2023-03-01T19:21:03.262Z,2.40
2023-03-01T19:24:08.271Z,2.30
2023-03-01T19:27:13.023Z,2.20
2023-03-01T19:30:17.779Z,2.30
2023-03-01T19:33:22.148Z,2.20
2023-03-01T19:36:33.486Z,2.10
2023-03-01T19:39:38.252Z,2.00
2023-03-01T19:42:43.000Z,2.00
2023-03-01T19:45:52.358Z,1.80
2023-03-01T19:48:58.892Z,1.90
2023-03-01T19:52:04.233Z,1.60
2023-03-01T19:55:10.196Z,1.70
2023-03-01T19:58:14.648Z,1.60
2023-03-01T20:01:22.311Z,1.60
2023-03-01T20:04:26.464Z,1.50
2023-03-01T20:07:30.956Z,1.30
2023-03-01T20:10:35.605Z,1.30
2023-03-01T20:13:41.862Z,1.50
2023-03-01T20:16:46.460Z,1.30
2023-03-01T20:19:50.723Z,1.20
2023-03-01T20:22:55.189Z,1.10
2023-03-01T20:26:09.027Z,1.20
2023-03-01T20:29:13.650Z,1.10
2023-03-01T20:32:18.011Z,1.00
2023-03-01T20:35:23.214Z,1.00
2023-03-01T20:38:28.325Z,1.00
2023-03-01T20:41:32.746Z,1.00
2023-03-01T20:44:42.977Z,0.90
2023-03-01T20:47:47.677Z,0.90
2023-03-01T20:50:52.101Z,0.80
2023-03-01T20:53:57.037Z,0.80
2023-03-01T20:57:01.117Z,0.60
2023-03-01T21:00:06.921Z,0.60
2023-03-01T21:03:11.351Z,0.60
2023-03-01T21:06:15.801Z,0.50
2023-03-01T21:09:20.118Z,0.40
2023-03-01T21:12:24.540Z,0.40
2023-03-01T21:15:29.837Z,0.40
2023-03-01T21:18:36.805Z,0.30
2023-03-01T21:21:41.797Z,0.20
2023-03-01T21:24:46.198Z,0.30
2023-03-01T21:27:50.395Z,0.30
2023-03-01T21:30:54.680Z,0.20
2023-03-01T21:34:00.585Z,0.20
2023-03-01T21:37:06.362Z,0.10
2023-03-01T21:40:11.496Z,0.00
2023-03-01T21:43:16.089Z,0.00
2023-03-01T21:46:25.115Z,0.00
2023-03-01T21:49:29.304Z,-0.10
2023-03-01T21:52:35.387Z,-0.20
2023-03-01T21:55:47.410Z,-0.20
2023-03-01T21:58:52.888Z,-0.20
2023-03-01T22:01:57.063Z,-0.30
2023-03-01T22:05:01.141Z,-0.30
2023-03-01T22:08:06.520Z,-0.30
2023-03-01T22:11:11.277Z,-0.30
2023-03-01T22:14:16.308Z,-0.40
2023-03-01T22:17:20.490Z,-0.30
2023-03-01T22:20:24.314Z,-0.30
2023-03-01T22:23:28.778Z,-0.30
2023-03-01T22:26:36.912Z,-0.30
2023-03-01T22:29:41.310Z,-0.40
2023-03-01T22:32:46.330Z,-0.50
2023-03-01T22:35:50.740Z,-0.50
2023-03-01T22:39:02.084Z,-0.40
2023-03-01T22:42:06.269Z,-0.50
2023-03-01T22:45:11.256Z,-0.40
2023-03-01T22:48:15.707Z,-0.60
2023-03-01T22:51:23.926Z,-0.60
2023-03-01T22:54:28.459Z,-0.60
2023-03-01T22:57:32.937Z,-0.60
2023-03-01T23:00:37.642Z,-0.60
2023-03-01T23:03:42.455Z,-0.60
2023-03-01T23:06:50.301Z,-0.60
2023-03-01T23:09:54.852Z,-0.60
2023-03-01T23:12:59.368Z,-0.60
2023-03-01T23:16:04.052Z,-0.80
2023-03-01T23:19:09.065Z,-0.70
2023-03-01T23:22:14.147Z,-0.70
2023-03-01T23:25:18.770Z,-0.80
2023-03-01T23:28:24.222Z,-0.80
2023-03-01T23:31:30.039Z,-0.80
2023-03-01T23:34:34.925Z,-0.70
2023-03-01T23:37:39.078Z,-0.60
2023-03-01T23:40:44.091Z,-0.70
2023-03-01T23:43:50.604Z,-0.70
2023-03-01T23:46:55.219Z,-0.70
2023-03-01T23:49:59.495Z,-0.80
2023-03-01T23:53:03.978Z,-0.90
2023-03-01T23:56:10.455Z,-1.10
2023-03-01T23:59:17.337Z,-0.90
